CYXL

Sioux Lookout Airport

Sioux Lookout, Ontario, Canada
TAF CYXL 181938Z 1820/1908 21008KT P6SM OVC015 FM182100 21008KT P6SM BKN015 BECMG 1821/1823 FEW020 SCT250 RMK NXT FCST BY 190200Z
Issued Valid From Valid To
Dec-18 @ 19:38 UTC
(4 hours ago)
Dec-18 @ 20:00 UTC
(3 hours ago)
Dec-19 @ 08:00 UTC
(in 9 hours)
Expired Click to View Dec-18 @ 20:00 to Dec-18 @ 21:00
TAF CYXL 181938Z 1820/1908 21008KT P6SM OVC015
Wind Visibility Clouds
210° at 8 knots Greater than 6 miles
  • Overcast at 1,500' AGL
From Dec-18 @ 21:00 to Dec-19 @ 08:00
FM182100 21008KT P6SM BKN015
Wind Visibility Clouds
210° at 8 knots Greater than 6 miles
  • Broken at 1,500' AGL
Becoming Dec-18 @ 21:00 to Dec-19 @ 08:00
BECMG 1821/1823 FEW020 SCT250 RMK NXT FCST BY 190200Z
Wind Visibility Clouds
210° at 8 knots Greater than 6 miles
  • Few at 2,000' AGL
  • Scattered at 25,000' AGL
TAF CYXL 181938Z 1820/1908 21008KT P6SM OVC015 FM182100 21008KT P6SM BKN015 BECMG 1821/1823 FEW020 SCT250 RMK NXT FCST BY 190200Z
Issued Dec-18 @ 19:38 UTC
(4 hours ago)
Valid From Dec-18 @ 20:00 UTC
(3 hours ago)
Valid To Dec-19 @ 08:00 UTC
(in 9 hours)
Dec-18 @ 20:00 - Dec-18 @ 21:00
Wind Visibility
210° at 8 knots Greater than 6 miles
Clouds
  • Overcast at 1,500' AGL
From Dec-18 @ 21:00 - Dec-19 @ 08:00
Wind Visibility
210° at 8 knots Greater than 6 miles
Clouds
  • Broken at 1,500' AGL
Becoming Dec-18 @ 21:00 - Dec-19 @ 08:00
Wind Visibility
210° at 8 knots Greater than 6 miles
Clouds
  • Few at 2,000' AGL
  • Scattered at 25,000' AGL